sensor_id;sensor_type;location;lat;lon;timestamp;temperature;humidity
57664;DHT22;43493;53.098;6.064;2022-09-27T00:01:16;11.10;99.90
57664;DHT22;43493;53.098;6.064;2022-09-27T00:03:42;11.20;99.90
57664;DHT22;43493;53.098;6.064;2022-09-27T00:08:50;11.20;99.90
57664;DHT22;43493;53.098;6.064;2022-09-27T00:11:37;11.10;99.90
57664;DHT22;43493;53.098;6.064;2022-09-27T00:14:04;11.10;99.90
57664;DHT22;43493;53.098;6.064;2022-09-27T00:16:33;11.10;99.90
57664;DHT22;43493;53.098;6.064;2022-09-27T00:19:01;11.10;99.90
57664;DHT22;43493;53.098;6.064;2022-09-27T00:21:28;11.10;99.90
57664;DHT22;43493;53.098;6.064;2022-09-27T00:23:55;11.00;99.90
57664;DHT22;43493;53.098;6.064;2022-09-27T00:26:21;11.00;99.90
57664;DHT22;43493;53.098;6.064;2022-09-27T00:28:47;11.00;99.90
57664;DHT22;43493;53.098;6.064;2022-09-27T00:31:19;11.00;99.90
57664;DHT22;43493;53.098;6.064;2022-09-27T00:33:49;10.90;99.90
57664;DHT22;43493;53.098;6.064;2022-09-27T00:36:16;10.80;99.90
57664;DHT22;43493;53.098;6.064;2022-09-27T00:38:43;10.90;99.90
57664;DHT22;43493;53.098;6.064;2022-09-27T00:41:14;10.80;99.90
57664;DHT22;43493;53.098;6.064;2022-09-27T00:46:41;10.80;99.90
57664;DHT22;43493;53.098;6.064;2022-09-27T00:49:25;10.80;99.90
57664;DHT22;43493;53.098;6.064;2022-09-27T00:52:06;10.70;99.90
57664;DHT22;43493;53.098;6.064;2022-09-27T00:54:33;10.70;99.90
57664;DHT22;43493;53.098;6.064;2022-09-27T00:57:01;10.70;99.90
57664;DHT22;43493;53.098;6.064;2022-09-27T00:59:51;10.70;99.90
57664;DHT22;43493;53.098;6.064;2022-09-27T01:02:19;10.70;99.90
57664;DHT22;43493;53.098;6.064;2022-09-27T01:04:45;10.70;99.90
57664;DHT22;43493;53.098;6.064;2022-09-27T01:07:12;10.70;99.90
57664;DHT22;43493;53.098;6.064;2022-09-27T01:09:38;10.70;99.90
57664;DHT22;43493;53.098;6.064;2022-09-27T01:15:30;10.60;99.90
57664;DHT22;43493;53.098;6.064;2022-09-27T01:21:11;10.60;99.90
57664;DHT22;43493;53.098;6.064;2022-09-27T01:29:32;10.50;99.90
57664;DHT22;43493;53.098;6.064;2022-09-27T01:35:06;10.50;99.90
57664;DHT22;43493;53.098;6.064;2022-09-27T01:45:42;10.70;99.90
57664;DHT22;43493;53.098;6.064;2022-09-27T01:48:15;10.80;99.90
57664;DHT22;43493;53.098;6.064;2022-09-27T01:50:46;10.80;99.90
57664;DHT22;43493;53.098;6.064;2022-09-27T01:53:19;10.80;99.90
57664;DHT22;43493;53.098;6.064;2022-09-27T01:55:48;10.80;99.90
57664;DHT22;43493;53.098;6.064;2022-09-27T01:58:43;10.80;99.90
57664;DHT22;43493;53.098;6.064;2022-09-27T02:01:12;10.80;99.90
57664;DHT22;43493;53.098;6.064;2022-09-27T02:03:43;10.80;99.90
57664;DHT22;43493;53.098;6.064;2022-09-27T02:06:18;10.80;99.90
57664;DHT22;43493;53.098;6.064;2022-09-27T02:08:57;10.70;99.90
57664;DHT22;43493;53.098;6.064;2022-09-27T02:11:23;10.80;99.90
57664;DHT22;43493;53.098;6.064;2022-09-27T02:14:02;10.70;99.90
57664;DHT22;43493;53.098;6.064;2022-09-27T02:16:39;10.70;99.90
57664;DHT22;43493;53.098;6.064;2022-09-27T02:22:31;10.70;99.90
57664;DHT22;43493;53.098;6.064;2022-09-27T02:25:10;10.60;99.90
57664;DHT22;43493;53.098;6.064;2022-09-27T02:30:30;10.70;99.90
57664;DHT22;43493;53.098;6.064;2022-09-27T02:32:56;10.60;99.90
57664;DHT22;43493;53.098;6.064;2022-09-27T02:35:25;10.60;99.90
57664;DHT22;43493;53.098;6.064;2022-09-27T02:37:51;10.60;99.90
57664;DHT22;43493;53.098;6.064;2022-09-27T02:40:17;10.60;99.90
57664;DHT22;43493;53.098;6.064;2022-09-27T02:42:43;10.60;99.90
57664;DHT22;43493;53.098;6.064;2022-09-27T02:45:10;10.70;99.90
57664;DHT22;43493;53.098;6.064;2022-09-27T02:48:03;10.70;99.90
57664;DHT22;43493;53.098;6.064;2022-09-27T02:50:56;10.60;99.90
57664;DHT22;43493;53.098;6.064;2022-09-27T02:59:17;10.60;99.90
57664;DHT22;43493;53.098;6.064;2022-09-27T03:02:00;10.60;99.90
57664;DHT22;43493;53.098;6.064;2022-09-27T03:04:46;10.60;99.90
57664;DHT22;43493;53.098;6.064;2022-09-27T03:07:14;10.50;99.90
57664;DHT22;43493;53.098;6.064;2022-09-27T03:09:47;10.50;99.90
57664;DHT22;43493;53.098;6.064;2022-09-27T03:12:14;10.50;99.90
57664;DHT22;43493;53.098;6.064;2022-09-27T03:14:45;10.50;99.90
57664;DHT22;43493;53.098;6.064;2022-09-27T03:17:11;10.50;99.90
57664;DHT22;43493;53.098;6.064;2022-09-27T03:19:37;10.50;99.90
57664;DHT22;43493;53.098;6.064;2022-09-27T03:22:02;10.50;99.90
57664;DHT22;43493;53.098;6.064;2022-09-27T03:24:28;10.50;99.90
57664;DHT22;43493;53.098;6.064;2022-09-27T03:26:54;10.50;99.90
57664;DHT22;43493;53.098;6.064;2022-09-27T03:29:19;10.40;99.90
57664;DHT22;43493;53.098;6.064;2022-09-27T03:31:45;10.50;99.90
57664;DHT22;43493;53.098;6.064;2022-09-27T03:34:11;10.40;99.90
57664;DHT22;43493;53.098;6.064;2022-09-27T03:36:37;10.40;99.90
57664;DHT22;43493;53.098;6.064;2022-09-27T03:39:02;10.40;99.90
57664;DHT22;43493;53.098;6.064;2022-09-27T03:41:28;10.40;99.90
57664;DHT22;43493;53.098;6.064;2022-09-27T03:43:54;10.40;99.90
57664;DHT22;43493;53.098;6.064;2022-09-27T03:46:22;10.40;99.90
57664;DHT22;43493;53.098;6.064;2022-09-27T03:48:48;10.40;99.90
57664;DHT22;43493;53.098;6.064;2022-09-27T03:51:13;10.40;99.90
57664;DHT22;43493;53.098;6.064;2022-09-27T03:53:39;10.40;99.90
57664;DHT22;43493;53.098;6.064;2022-09-27T03:56:05;10.40;99.90
57664;DHT22;43493;53.098;6.064;2022-09-27T03:58:30;10.40;99.90
57664;DHT22;43493;53.098;6.064;2022-09-27T04:00:56;10.40;99.90
57664;DHT22;43493;53.098;6.064;2022-09-27T04:03:22;10.40;99.90
57664;DHT22;43493;53.098;6.064;2022-09-27T04:05:47;10.40;99.90
57664;DHT22;43493;53.098;6.064;2022-09-27T04:08:13;10.30;99.90
57664;DHT22;43493;53.098;6.064;2022-09-27T04:10:40;10.30;99.90
57664;DHT22;43493;53.098;6.064;2022-09-27T04:13:06;10.20;99.90
57664;DHT22;43493;53.098;6.064;2022-09-27T04:15:32;10.20;99.90
57664;DHT22;43493;53.098;6.064;2022-09-27T04:17:58;10.20;99.90
57664;DHT22;43493;53.098;6.064;2022-09-27T04:20:23;10.20;99.90
57664;DHT22;43493;53.098;6.064;2022-09-27T04:22:49;10.20;99.90
57664;DHT22;43493;53.098;6.064;2022-09-27T04:25:15;10.20;99.90
57664;DHT22;43493;53.098;6.064;2022-09-27T04:27:44;10.20;99.90
57664;DHT22;43493;53.098;6.064;2022-09-27T04:30:11;10.20;99.90
57664;DHT22;43493;53.098;6.064;2022-09-27T04:32:42;10.20;99.90
57664;DHT22;43493;53.098;6.064;2022-09-27T04:35:08;10.20;99.90
57664;DHT22;43493;53.098;6.064;2022-09-27T04:37:53;10.10;99.90
57664;DHT22;43493;53.098;6.064;2022-09-27T04:40:19;10.10;99.90
57664;DHT22;43493;53.098;6.064;2022-09-27T04:42:47;10.10;99.90
57664;DHT22;43493;53.098;6.064;2022-09-27T04:45:12;10.10;99.90
57664;DHT22;43493;53.098;6.064;2022-09-27T04:47:42;10.00;99.90
57664;DHT22;43493;53.098;6.064;2022-09-27T04:50:09;10.00;99.90
57664;DHT22;43493;53.098;6.064;2022-09-27T04:52:34;10.00;99.90
57664;DHT22;43493;53.098;6.064;2022-09-27T04:55:00;9.90;99.90
57664;DHT22;43493;53.098;6.064;2022-09-27T04:57:26;10.00;99.90
57664;DHT22;43493;53.098;6.064;2022-09-27T04:59:51;9.90;99.90
57664;DHT22;43493;53.098;6.064;2022-09-27T05:02:17;10.00;99.90
57664;DHT22;43493;53.098;6.064;2022-09-27T05:04:43;9.90;99.90
57664;DHT22;43493;53.098;6.064;2022-09-27T05:07:08;9.90;99.90
57664;DHT22;43493;53.098;6.064;2022-09-27T05:09:34;10.00;99.90
57664;DHT22;43493;53.098;6.064;2022-09-27T05:12:00;9.90;99.90
57664;DHT22;43493;53.098;6.064;2022-09-27T05:14:26;9.90;99.90
57664;DHT22;43493;53.098;6.064;2022-09-27T05:16:53;9.90;99.90
57664;DHT22;43493;53.098;6.064;2022-09-27T05:19:18;9.90;99.90
57664;DHT22;43493;53.098;6.064;2022-09-27T05:21:44;9.90;99.90
57664;DHT22;43493;53.098;6.064;2022-09-27T05:24:10;9.90;99.90
57664;DHT22;43493;53.098;6.064;2022-09-27T05:26:35;9.90;99.90
57664;DHT22;43493;53.098;6.064;2022-09-27T05:29:02;9.90;99.90
57664;DHT22;43493;53.098;6.064;2022-09-27T05:31:29;9.90;99.90
57664;DHT22;43493;53.098;6.064;2022-09-27T05:33:54;9.90;99.90
57664;DHT22;43493;53.098;6.064;2022-09-27T05:36:20;9.90;99.90
57664;DHT22;43493;53.098;6.064;2022-09-27T05:38:48;9.90;99.90
57664;DHT22;43493;53.098;6.064;2022-09-27T05:41:14;10.00;99.90
57664;DHT22;43493;53.098;6.064;2022-09-27T05:43:40;10.00;99.90
57664;DHT22;43493;53.098;6.064;2022-09-27T05:46:06;10.00;99.90
57664;DHT22;43493;53.098;6.064;2022-09-27T05:48:31;10.10;99.90
57664;DHT22;43493;53.098;6.064;2022-09-27T05:50:57;10.10;99.90
57664;DHT22;43493;53.098;6.064;2022-09-27T05:53:23;10.10;99.90
57664;DHT22;43493;53.098;6.064;2022-09-27T05:55:49;10.00;99.90
57664;DHT22;43493;53.098;6.064;2022-09-27T05:58:15;10.10;99.90
57664;DHT22;43493;53.098;6.064;2022-09-27T06:00:41;10.10;99.90
57664;DHT22;43493;53.098;6.064;2022-09-27T06:03:10;10.10;99.90
57664;DHT22;43493;53.098;6.064;2022-09-27T06:05:38;10.10;99.90
57664;DHT22;43493;53.098;6.064;2022-09-27T06:08:07;10.20;99.90
57664;DHT22;43493;53.098;6.064;2022-09-27T06:10:33;10.20;99.90
57664;DHT22;43493;53.098;6.064;2022-09-27T06:13:04;10.20;99.90
57664;DHT22;43493;53.098;6.064;2022-09-27T06:15:31;10.20;99.90
57664;DHT22;43493;53.098;6.064;2022-09-27T06:18:06;10.20;99.90
57664;DHT22;43493;53.098;6.064;2022-09-27T06:20:32;10.30;99.90
57664;DHT22;43493;53.098;6.064;2022-09-27T06:23:15;10.30;99.90
57664;DHT22;43493;53.098;6.064;2022-09-27T06:25:42;10.30;99.90
57664;DHT22;43493;53.098;6.064;2022-09-27T06:28:08;10.30;99.90
57664;DHT22;43493;53.098;6.064;2022-09-27T06:30:38;10.30;99.90
57664;DHT22;43493;53.098;6.064;2022-09-27T06:33:05;10.30;99.90
57664;DHT22;43493;53.098;6.064;2022-09-27T06:35:31;10.30;99.90
57664;DHT22;43493;53.098;6.064;2022-09-27T06:38:05;10.40;99.90
57664;DHT22;43493;53.098;6.064;2022-09-27T06:40:34;10.40;99.90
57664;DHT22;43493;53.098;6.064;2022-09-27T06:43:10;10.40;99.90
57664;DHT22;43493;53.098;6.064;2022-09-27T06:45:36;10.40;99.90
57664;DHT22;43493;53.098;6.064;2022-09-27T06:48:07;10.50;99.90
57664;DHT22;43493;53.098;6.064;2022-09-27T06:50:38;10.50;99.90
57664;DHT22;43493;53.098;6.064;2022-09-27T06:53:05;10.50;99.90
57664;DHT22;43493;53.098;6.064;2022-09-27T06:55:31;10.50;99.90
57664;DHT22;43493;53.098;6.064;2022-09-27T06:57:58;10.50;99.90
57664;DHT22;43493;53.098;6.064;2022-09-27T07:00:43;10.50;99.90
57664;DHT22;43493;53.098;6.064;2022-09-27T07:03:12;10.50;99.90
57664;DHT22;43493;53.098;6.064;2022-09-27T07:05:39;10.60;99.90
57664;DHT22;43493;53.098;6.064;2022-09-27T07:08:09;10.70;99.90
57664;DHT22;43493;53.098;6.064;2022-09-27T07:10:37;10.70;99.90
57664;DHT22;43493;53.098;6.064;2022-09-27T07:13:08;10.70;99.90
57664;DHT22;43493;53.098;6.064;2022-09-27T07:15:36;10.70;99.90
57664;DHT22;43493;53.098;6.064;2022-09-27T07:18:04;10.80;99.90
57664;DHT22;43493;53.098;6.064;2022-09-27T07:20:30;10.90;99.90
57664;DHT22;43493;53.098;6.064;2022-09-27T07:22:56;10.90;99.90
57664;DHT22;43493;53.098;6.064;2022-09-27T07:25:23;10.90;99.90
57664;DHT22;43493;53.098;6.064;2022-09-27T07:27:49;11.00;99.90
57664;DHT22;43493;53.098;6.064;2022-09-27T07:30:15;11.00;99.90
57664;DHT22;43493;53.098;6.064;2022-09-27T07:32:42;11.00;99.90
57664;DHT22;43493;53.098;6.064;2022-09-27T07:35:08;11.10;99.90
57664;DHT22;43493;53.098;6.064;2022-09-27T07:37:35;11.10;99.90
57664;DHT22;43493;53.098;6.064;2022-09-27T07:40:03;11.10;99.90
57664;DHT22;43493;53.098;6.064;2022-09-27T07:42:32;11.20;99.90
57664;DHT22;43493;53.098;6.064;2022-09-27T07:44:57;11.30;99.90
57664;DHT22;43493;53.098;6.064;2022-09-27T07:47:24;11.40;99.90
57664;DHT22;43493;53.098;6.064;2022-09-27T07:49:51;11.40;99.90
57664;DHT22;43493;53.098;6.064;2022-09-27T07:52:21;11.40;99.90
57664;DHT22;43493;53.098;6.064;2022-09-27T07:54:47;11.30;99.90
57664;DHT22;43493;53.098;6.064;2022-09-27T07:57:13;11.30;99.90
57664;DHT22;43493;53.098;6.064;2022-09-27T07:59:40;11.30;99.90
57664;DHT22;43493;53.098;6.064;2022-09-27T08:02:12;11.30;99.90
57664;DHT22;43493;53.098;6.064;2022-09-27T08:04:38;11.20;99.90
57664;DHT22;43493;53.098;6.064;2022-09-27T08:07:04;11.30;99.90
57664;DHT22;43493;53.098;6.064;2022-09-27T08:09:29;11.30;99.90
57664;DHT22;43493;53.098;6.064;2022-09-27T08:11:56;11.30;99.90
57664;DHT22;43493;53.098;6.064;2022-09-27T08:14:23;11.40;99.90
57664;DHT22;43493;53.098;6.064;2022-09-27T08:16:49;11.50;99.90
57664;DHT22;43493;53.098;6.064;2022-09-27T08:19:16;11.60;99.90
57664;DHT22;43493;53.098;6.064;2022-09-27T08:21:43;11.70;99.90
57664;DHT22;43493;53.098;6.064;2022-09-27T08:24:09;11.80;99.90
57664;DHT22;43493;53.098;6.064;2022-09-27T08:26:35;11.90;99.90
57664;DHT22;43493;53.098;6.064;2022-09-27T08:29:01;12.10;99.90
57664;DHT22;43493;53.098;6.064;2022-09-27T08:31:27;12.30;99.90
57664;DHT22;43493;53.098;6.064;2022-09-27T08:33:52;12.40;99.90
57664;DHT22;43493;53.098;6.064;2022-09-27T08:36:18;12.60;99.90
57664;DHT22;43493;53.098;6.064;2022-09-27T08:38:50;12.70;99.90
57664;DHT22;43493;53.098;6.064;2022-09-27T08:49:38;12.80;99.90
57664;DHT22;43493;53.098;6.064;2022-09-27T08:52:10;12.80;99.90
57664;DHT22;43493;53.098;6.064;2022-09-27T08:54:36;12.70;99.90
57664;DHT22;43493;53.098;6.064;2022-09-27T08:57:10;12.70;99.90
57664;DHT22;43493;53.098;6.064;2022-09-27T08:59:42;12.70;99.90
57664;DHT22;43493;53.098;6.064;2022-09-27T09:02:20;12.80;99.90
57664;DHT22;43493;53.098;6.064;2022-09-27T09:04:55;12.70;99.90
57664;DHT22;43493;53.098;6.064;2022-09-27T09:07:29;12.70;99.90
57664;DHT22;43493;53.098;6.064;2022-09-27T09:15:16;12.80;99.90
57664;DHT22;43493;53.098;6.064;2022-09-27T09:34:19;13.10;99.90
57664;DHT22;43493;53.098;6.064;2022-09-27T09:37:04;13.10;99.90
57664;DHT22;43493;53.098;6.064;2022-09-27T09:39:52;13.10;99.90
57664;DHT22;43493;53.098;6.064;2022-09-27T09:42:30;13.10;99.90
57664;DHT22;43493;53.098;6.064;2022-09-27T09:45:01;13.20;99.90
57664;DHT22;43493;53.098;6.064;2022-09-27T09:50:40;13.20;99.90
57664;DHT22;43493;53.098;6.064;2022-09-27T09:53:40;13.30;99.90
57664;DHT22;43493;53.098;6.064;2022-09-27T09:56:16;13.40;99.90
57664;DHT22;43493;53.098;6.064;2022-09-27T09:58:46;13.40;99.90
57664;DHT22;43493;53.098;6.064;2022-09-27T10:01:42;13.50;99.90
57664;DHT22;43493;53.098;6.064;2022-09-27T10:04:23;13.50;99.90
57664;DHT22;43493;53.098;6.064;2022-09-27T10:06:50;13.50;99.90
57664;DHT22;43493;53.098;6.064;2022-09-27T10:09:19;13.50;99.90
57664;DHT22;43493;53.098;6.064;2022-09-27T10:11:46;13.40;99.90
57664;DHT22;43493;53.098;6.064;2022-09-27T10:14:15;13.40;99.90
57664;DHT22;43493;53.098;6.064;2022-09-27T10:16:46;13.20;99.90
57664;DHT22;43493;53.098;6.064;2022-09-27T10:19:16;13.20;99.90
57664;DHT22;43493;53.098;6.064;2022-09-27T10:21:45;13.10;99.90
57664;DHT22;43493;53.098;6.064;2022-09-27T10:24:15;13.00;99.90
57664;DHT22;43493;53.098;6.064;2022-09-27T10:26:43;13.00;99.90
57664;DHT22;43493;53.098;6.064;2022-09-27T10:39:38;12.60;99.90
57664;DHT22;43493;53.098;6.064;2022-09-27T10:42:34;12.50;99.90
57664;DHT22;43493;53.098;6.064;2022-09-27T10:45:32;12.50;99.90
57664;DHT22;43493;53.098;6.064;2022-09-27T10:47:59;12.50;99.90
57664;DHT22;43493;53.098;6.064;2022-09-27T10:50:30;12.60;99.90
57664;DHT22;43493;53.098;6.064;2022-09-27T10:53:20;12.60;99.90
57664;DHT22;43493;53.098;6.064;2022-09-27T10:55:48;12.70;99.90
57664;DHT22;43493;53.098;6.064;2022-09-27T11:00:57;12.80;99.90
57664;DHT22;43493;53.098;6.064;2022-09-27T11:03:26;12.80;99.90
57664;DHT22;43493;53.098;6.064;2022-09-27T11:05:53;12.80;99.90
57664;DHT22;43493;53.098;6.064;2022-09-27T11:08:32;12.90;99.90
57664;DHT22;43493;53.098;6.064;2022-09-27T11:13:38;13.00;99.90
57664;DHT22;43493;53.098;6.064;2022-09-27T12:09:22;13.20;99.90
57664;DHT22;43493;53.098;6.064;2022-09-27T12:12:23;13.20;99.90
57664;DHT22;43493;53.098;6.064;2022-09-27T12:15:03;13.30;99.90
57664;DHT22;43493;53.098;6.064;2022-09-27T12:17:35;13.30;99.90
57664;DHT22;43493;53.098;6.064;2022-09-27T12:20:10;13.40;99.90
57664;DHT22;43493;53.098;6.064;2022-09-27T12:22:57;13.50;99.90
57664;DHT22;43493;53.098;6.064;2022-09-27T12:25:29;13.50;99.90
57664;DHT22;43493;53.098;6.064;2022-09-27T12:30:42;13.50;99.90
57664;DHT22;43493;53.098;6.064;2022-09-27T12:33:26;13.50;99.90
57664;DHT22;43493;53.098;6.064;2022-09-27T12:35:58;13.60;99.90
57664;DHT22;43493;53.098;6.064;2022-09-27T12:41:12;13.70;99.90
57664;DHT22;43493;53.098;6.064;2022-09-27T12:43:44;13.70;99.90
57664;DHT22;43493;53.098;6.064;2022-09-27T12:51:23;13.40;99.90
57664;DHT22;43493;53.098;6.064;2022-09-27T12:59:34;12.90;99.90
57664;DHT22;43493;53.098;6.064;2022-09-27T13:08:40;13.10;99.90
57664;DHT22;43493;53.098;6.064;2022-09-27T13:11:23;13.20;99.90
57664;DHT22;43493;53.098;6.064;2022-09-27T13:13:57;13.20;99.90
57664;DHT22;43493;53.098;6.064;2022-09-27T13:16:24;13.10;99.90
57664;DHT22;43493;53.098;6.064;2022-09-27T13:27:12;12.70;99.90
57664;DHT22;43493;53.098;6.064;2022-09-27T13:32:38;12.60;99.90
57664;DHT22;43493;53.098;6.064;2022-09-27T13:35:25;12.50;99.90
57664;DHT22;43493;53.098;6.064;2022-09-27T13:37:55;12.40;99.90
57664;DHT22;43493;53.098;6.064;2022-09-27T13:40:35;12.40;99.90
57664;DHT22;43493;53.098;6.064;2022-09-27T13:43:14;12.40;99.90
57664;DHT22;43493;53.098;6.064;2022-09-27T13:46:03;12.40;99.90
57664;DHT22;43493;53.098;6.064;2022-09-27T13:51:15;12.60;99.90
57664;DHT22;43493;53.098;6.064;2022-09-27T13:53:50;12.60;99.90
57664;DHT22;43493;53.098;6.064;2022-09-27T13:59:02;12.60;99.90
57664;DHT22;43493;53.098;6.064;2022-09-27T14:01:33;12.60;99.90
57664;DHT22;43493;53.098;6.064;2022-09-27T14:04:20;12.60;99.90
57664;DHT22;43493;53.098;6.064;2022-09-27T14:06:50;12.70;99.90
57664;DHT22;43493;53.098;6.064;2022-09-27T14:09:29;12.70;99.90
57664;DHT22;43493;53.098;6.064;2022-09-27T14:11:59;12.70;99.90
57664;DHT22;43493;53.098;6.064;2022-09-27T14:14:28;12.70;99.90
57664;DHT22;43493;53.098;6.064;2022-09-27T14:16:57;12.80;99.90
57664;DHT22;43493;53.098;6.064;2022-09-27T14:19:24;12.80;99.90
57664;DHT22;43493;53.098;6.064;2022-09-27T14:21:51;12.80;99.90
57664;DHT22;43493;53.098;6.064;2022-09-27T14:24:29;12.80;99.90
57664;DHT22;43493;53.098;6.064;2022-09-27T14:27:14;12.80;99.90
57664;DHT22;43493;53.098;6.064;2022-09-27T14:29:47;12.80;99.90
57664;DHT22;43493;53.098;6.064;2022-09-27T14:32:24;12.90;99.90
57664;DHT22;43493;53.098;6.064;2022-09-27T14:38:01;13.00;99.90
57664;DHT22;43493;53.098;6.064;2022-09-27T14:40:28;13.00;99.90
57664;DHT22;43493;53.098;6.064;2022-09-27T14:42:56;12.90;99.90
57664;DHT22;43493;53.098;6.064;2022-09-27T14:45:38;13.00;99.90
57664;DHT22;43493;53.098;6.064;2022-09-27T14:48:26;13.00;99.90
57664;DHT22;43493;53.098;6.064;2022-09-27T14:53:27;13.00;99.90
57664;DHT22;43493;53.098;6.064;2022-09-27T14:55:54;13.00;99.90
57664;DHT22;43493;53.098;6.064;2022-09-27T14:58:21;13.00;99.90
57664;DHT22;43493;53.098;6.064;2022-09-27T15:00:48;13.00;99.90
57664;DHT22;43493;53.098;6.064;2022-09-27T15:03:28;13.00;99.90
57664;DHT22;43493;53.098;6.064;2022-09-27T15:05:59;13.00;99.90
57664;DHT22;43493;53.098;6.064;2022-09-27T15:08:29;13.00;99.90
57664;DHT22;43493;53.098;6.064;2022-09-27T15:10:56;13.00;99.90
57664;DHT22;43493;53.098;6.064;2022-09-27T15:13:23;13.00;99.90
57664;DHT22;43493;53.098;6.064;2022-09-27T15:15:51;13.00;99.90
57664;DHT22;43493;53.098;6.064;2022-09-27T15:20:59;13.00;99.90
57664;DHT22;43493;53.098;6.064;2022-09-27T15:23:28;13.00;99.90
57664;DHT22;43493;53.098;6.064;2022-09-27T15:28:42;13.00;99.90
57664;DHT22;43493;53.098;6.064;2022-09-27T15:31:09;12.90;99.90
57664;DHT22;43493;53.098;6.064;2022-09-27T15:33:35;12.90;99.90
57664;DHT22;43493;53.098;6.064;2022-09-27T15:36:06;12.90;99.90
57664;DHT22;43493;53.098;6.064;2022-09-27T15:38:43;12.90;99.90
57664;DHT22;43493;53.098;6.064;2022-09-27T15:43:45;12.80;99.90
57664;DHT22;43493;53.098;6.064;2022-09-27T15:46:23;12.80;99.90
57664;DHT22;43493;53.098;6.064;2022-09-27T15:52:02;12.80;99.90
57664;DHT22;43493;53.098;6.064;2022-09-27T15:59:31;12.40;99.90
57664;DHT22;43493;53.098;6.064;2022-09-27T16:02:09;12.20;99.90
57664;DHT22;43493;53.098;6.064;2022-09-27T16:09:33;12.00;99.90
57664;DHT22;43493;53.098;6.064;2022-09-27T16:11:59;11.90;99.90
57664;DHT22;43493;53.098;6.064;2022-09-27T16:24:13;11.70;99.90
57664;DHT22;43493;53.098;6.064;2022-09-27T16:26:39;11.60;99.90
57664;DHT22;43493;53.098;6.064;2022-09-27T16:29:09;11.50;99.90
57664;DHT22;43493;53.098;6.064;2022-09-27T16:31:36;11.50;99.90
57664;DHT22;43493;53.098;6.064;2022-09-27T16:34:02;11.50;99.90
57664;DHT22;43493;53.098;6.064;2022-09-27T16:36:27;11.40;99.90
57664;DHT22;43493;53.098;6.064;2022-09-27T16:38:53;11.40;99.90
57664;DHT22;43493;53.098;6.064;2022-09-27T16:41:20;11.30;99.90
57664;DHT22;43493;53.098;6.064;2022-09-27T16:43:46;11.30;99.90
57664;DHT22;43493;53.098;6.064;2022-09-27T16:46:13;11.30;99.90
57664;DHT22;43493;53.098;6.064;2022-09-27T16:48:43;11.30;99.90
57664;DHT22;43493;53.098;6.064;2022-09-27T16:51:16;11.30;99.90
57664;DHT22;43493;53.098;6.064;2022-09-27T16:54:02;11.30;99.90
57664;DHT22;43493;53.098;6.064;2022-09-27T16:56:30;11.30;99.90
57664;DHT22;43493;53.098;6.064;2022-09-27T16:58:57;11.20;99.90
57664;DHT22;43493;53.098;6.064;2022-09-27T17:01:24;11.20;99.90
57664;DHT22;43493;53.098;6.064;2022-09-27T17:03:51;11.20;99.90
57664;DHT22;43493;53.098;6.064;2022-09-27T17:06:18;11.20;99.90
57664;DHT22;43493;53.098;6.064;2022-09-27T17:08:44;11.10;99.90
57664;DHT22;43493;53.098;6.064;2022-09-27T17:11:12;11.10;99.90
57664;DHT22;43493;53.098;6.064;2022-09-27T17:13:39;11.10;99.90
57664;DHT22;43493;53.098;6.064;2022-09-27T17:16:05;11.00;99.90
57664;DHT22;43493;53.098;6.064;2022-09-27T17:18:31;11.00;99.90
57664;DHT22;43493;53.098;6.064;2022-09-27T17:21:00;11.00;99.90
57664;DHT22;43493;53.098;6.064;2022-09-27T17:23:28;11.00;99.90
57664;DHT22;43493;53.098;6.064;2022-09-27T17:25:54;11.00;99.90
57664;DHT22;43493;53.098;6.064;2022-09-27T17:28:27;11.00;99.90
57664;DHT22;43493;53.098;6.064;2022-09-27T17:30:53;10.90;99.90
57664;DHT22;43493;53.098;6.064;2022-09-27T17:33:20;10.90;99.90
57664;DHT22;43493;53.098;6.064;2022-09-27T17:35:56;10.80;99.90
57664;DHT22;43493;53.098;6.064;2022-09-27T17:38:24;10.80;99.90
57664;DHT22;43493;53.098;6.064;2022-09-27T17:40:59;10.80;99.90
57664;DHT22;43493;53.098;6.064;2022-09-27T17:43:24;10.80;99.90
57664;DHT22;43493;53.098;6.064;2022-09-27T17:45:50;10.80;99.90
57664;DHT22;43493;53.098;6.064;2022-09-27T17:48:16;10.80;99.90
57664;DHT22;43493;53.098;6.064;2022-09-27T17:51:00;10.80;99.90
57664;DHT22;43493;53.098;6.064;2022-09-27T17:53:25;10.80;99.90
57664;DHT22;43493;53.098;6.064;2022-09-27T17:55:51;10.80;99.90
57664;DHT22;43493;53.098;6.064;2022-09-27T17:58:19;10.90;99.90
57664;DHT22;43493;53.098;6.064;2022-09-27T18:00:45;10.80;99.90
57664;DHT22;43493;53.098;6.064;2022-09-27T18:03:11;10.90;99.90
57664;DHT22;43493;53.098;6.064;2022-09-27T18:05:36;10.80;99.90
57664;DHT22;43493;53.098;6.064;2022-09-27T18:08:02;10.80;99.90
57664;DHT22;43493;53.098;6.064;2022-09-27T18:10:28;10.80;99.90
57664;DHT22;43493;53.098;6.064;2022-09-27T18:12:54;10.80;99.90
57664;DHT22;43493;53.098;6.064;2022-09-27T18:15:20;10.80;99.90
57664;DHT22;43493;53.098;6.064;2022-09-27T18:17:49;10.80;99.90
57664;DHT22;43493;53.098;6.064;2022-09-27T18:20:15;10.80;99.90
57664;DHT22;43493;53.098;6.064;2022-09-27T18:22:41;10.70;99.90
57664;DHT22;43493;53.098;6.064;2022-09-27T18:25:07;10.70;99.90
57664;DHT22;43493;53.098;6.064;2022-09-27T18:27:33;10.70;99.90
57664;DHT22;43493;53.098;6.064;2022-09-27T18:29:59;10.70;99.90
57664;DHT22;43493;53.098;6.064;2022-09-27T18:32:27;10.70;99.90
57664;DHT22;43493;53.098;6.064;2022-09-27T18:34:53;10.70;99.90
57664;DHT22;43493;53.098;6.064;2022-09-27T18:37:19;10.70;99.90
57664;DHT22;43493;53.098;6.064;2022-09-27T18:39:44;10.70;99.90
57664;DHT22;43493;53.098;6.064;2022-09-27T18:42:10;10.70;99.90
57664;DHT22;43493;53.098;6.064;2022-09-27T18:44:36;10.70;99.90
57664;DHT22;43493;53.098;6.064;2022-09-27T18:47:01;10.70;99.90
57664;DHT22;43493;53.098;6.064;2022-09-27T18:49:27;10.60;99.90
57664;DHT22;43493;53.098;6.064;2022-09-27T18:51:53;10.60;99.90
57664;DHT22;43493;53.098;6.064;2022-09-27T18:54:21;10.60;99.90
57664;DHT22;43493;53.098;6.064;2022-09-27T18:56:48;10.60;99.90
57664;DHT22;43493;53.098;6.064;2022-09-27T18:59:14;10.60;99.90
57664;DHT22;43493;53.098;6.064;2022-09-27T19:01:42;10.60;99.90
57664;DHT22;43493;53.098;6.064;2022-09-27T19:04:11;10.60;99.90
57664;DHT22;43493;53.098;6.064;2022-09-27T19:06:38;10.50;99.90
57664;DHT22;43493;53.098;6.064;2022-09-27T19:09:05;10.50;99.90
57664;DHT22;43493;53.098;6.064;2022-09-27T19:11:31;10.50;99.90
57664;DHT22;43493;53.098;6.064;2022-09-27T19:13:58;10.50;99.90
57664;DHT22;43493;53.098;6.064;2022-09-27T19:16:25;10.50;99.90
57664;DHT22;43493;53.098;6.064;2022-09-27T19:18:51;10.40;99.90
57664;DHT22;43493;53.098;6.064;2022-09-27T19:21:23;10.40;99.90
57664;DHT22;43493;53.098;6.064;2022-09-27T19:23:49;10.40;99.90
57664;DHT22;43493;53.098;6.064;2022-09-27T19:26:18;10.40;99.90
57664;DHT22;43493;53.098;6.064;2022-09-27T19:28:44;10.40;99.90